Time;durP1;ratioP1;P1;durP2;ratioP2;P2;SDS_P1;SDS_P2;PMS_P1;PMS_P2;Temp;Humidity;BMP_temperature;BMP_pressure;BME280_temperature;BME280_humidity;BME280_pressure;Samples;Min_cycle;Max_cycle;Signal;HPM_P1;HPM_P2
2021/07/05 07:33:46;;;;;;;8.10;2.20;;;20.70;99.90;;;;;;5088437;28;20167;-72
2021/07/05 07:36:11;;;;;;;4.55;2.10;;;20.70;99.90;;;;;;5088931;28;20073;-75
2021/07/05 07:38:48;;;;;;;7.75;2.40;;;20.70;99.90;;;;;;5087177;28;20079;-77
2021/07/05 07:41:20;;;;;;;7.05;2.50;;;20.70;99.90;;;;;;5088635;28;20457;-76
2021/07/05 07:43:45;;;;;;;5.70;2.00;;;20.80;99.90;;;;;;5088765;28;20043;-76
2021/07/05 07:46:11;;;;;;;8.90;2.53;;;20.80;99.90;;;;;;5088708;28;20024;-75
2021/07/05 07:48:38;;;;;;;6.85;1.92;;;20.90;99.90;;;;;;5088420;28;20048;-75
2021/07/05 07:51:03;;;;;;;7.13;2.10;;;20.90;99.90;;;;;;5087734;28;20492;-75
2021/07/05 07:53:29;;;;;;;7.68;2.30;;;21.00;99.90;;;;;;5068573;28;20032;-75
2021/07/05 07:55:55;;;;;;;9.02;2.30;;;21.00;99.90;;;;;;5068558;28;20032;-74
2021/07/05 07:58:20;;;;;;;6.70;1.85;;;21.10;99.90;;;;;;5068337;28;20039;-73
2021/07/05 08:00:46;;;;;;;5.68;1.92;;;21.10;99.90;;;;;;5068010;28;20024;-76
2021/07/05 08:03:12;;;;;;;8.75;1.98;;;21.20;99.90;;;;;;5072317;28;20388;-76
2021/07/05 08:05:38;;;;;;;7.25;2.25;;;21.30;99.90;;;;;;5087435;28;20388;-76
2021/07/05 08:08:04;;;;;;;5.25;2.20;;;21.30;99.90;;;;;;5088395;28;20460;-76
2021/07/05 08:10:31;;;;;;;5.32;1.95;;;21.30;99.90;;;;;;5087831;28;20111;-73
2021/07/05 08:12:58;;;;;;;5.60;2.05;;;21.30;99.90;;;;;;5087055;28;20036;-75
2021/07/05 08:15:24;;;;;;;4.63;2.03;;;21.40;99.90;;;;;;5088306;28;20036;-76
2021/07/05 08:17:49;;;;;;;5.53;2.50;;;21.40;99.90;;;;;;5087928;28;20585;-75
2021/07/05 08:20:25;;;;;;;5.18;2.35;;;21.40;99.90;;;;;;5083985;28;20032;-77
2021/07/05 08:22:53;;;;;;;4.97;1.90;;;21.40;99.90;;;;;;5086648;28;20070;-76
2021/07/05 08:25:20;;;;;;;5.35;2.28;;;21.50;99.90;;;;;;5088133;28;20051;-75
2021/07/05 08:27:45;;;;;;;6.30;2.00;;;21.40;99.90;;;;;;5087759;28;20073;-76
2021/07/05 08:30:11;;;;;;;4.78;2.20;;;21.50;99.90;;;;;;5087938;28;20020;-76
2021/07/05 08:32:37;;;;;;;5.88;2.15;;;21.50;99.90;;;;;;5087261;28;20048;-75
2021/07/05 08:35:05;;;;;;;8.32;2.30;;;21.50;99.90;;;;;;5088097;28;20062;-76
2021/07/05 08:37:30;;;;;;;6.22;2.05;;;21.50;99.90;;;;;;5087654;28;20028;-74
2021/07/05 08:39:56;;;;;;;4.13;1.95;;;21.60;99.90;;;;;;5087832;28;20027;-75
2021/07/05 08:42:23;;;;;;;5.93;2.00;;;21.60;99.90;;;;;;5086560;28;20422;-76
2021/07/05 08:44:49;;;;;;;5.00;1.77;;;21.60;99.90;;;;;;5074967;28;20035;-76
2021/07/05 08:47:17;;;;;;;8.07;2.40;;;21.60;99.90;;;;;;5074103;28;20028;-78
2021/07/05 08:49:45;;;;;;;7.32;2.20;;;21.70;99.90;;;;;;5074125;28;20024;-75
2021/07/05 08:52:11;;;;;;;4.10;2.00;;;21.70;99.90;;;;;;5074107;28;20439;-77
2021/07/05 08:54:36;;;;;;;6.05;2.35;;;21.70;99.90;;;;;;5073223;28;20029;-74
2021/07/05 08:57:03;;;;;;;5.05;2.17;;;21.70;99.90;;;;;;5073695;28;20020;-74
2021/07/05 08:59:31;;;;;;;6.45;2.00;;;21.70;99.90;;;;;;5074119;28;20431;-76
2021/07/05 09:01:57;;;;;;;5.30;1.90;;;21.80;99.90;;;;;;5074343;28;20468;-76
2021/07/05 09:04:22;;;;;;;10.43;2.30;;;21.80;99.90;;;;;;5073318;28;20074;-74
2021/07/05 09:07:15;;;;;;;9.10;2.33;;;21.80;99.90;;;;;;5073596;28;20380;-73
2021/07/05 09:10:06;;;;;;;10.70;2.22;;;21.90;99.90;;;;;;5072039;28;20051;-74
2021/07/05 09:12:32;;;;;;;6.07;2.25;;;22.00;99.90;;;;;;5073780;28;20028;-73
2021/07/05 09:15:05;;;;;;;6.93;2.45;;;22.10;99.90;;;;;;5074064;28;20464;-74
2021/07/05 09:17:40;;;;;;;4.75;2.00;;;22.10;99.90;;;;;;5073058;28;20130;-73
2021/07/05 09:20:14;;;;;;;7.85;2.60;;;22.20;99.90;;;;;;5072786;28;20484;-72
2021/07/05 09:23:13;;;;;;;4.53;2.03;;;22.20;99.90;;;;;;5072532;28;20111;-74
2021/07/05 09:25:42;;;;;;;7.95;2.47;;;22.20;99.90;;;;;;5067027;28;20032;-73
2021/07/05 09:28:08;;;;;;;8.85;2.50;;;22.30;99.90;;;;;;5073272;28;20016;-74
2021/07/05 09:30:40;;;;;;;7.78;2.35;;;22.30;99.90;;;;;;5073144;28;20028;-74
2021/07/05 09:33:26;;;;;;;6.97;2.25;;;22.30;99.90;;;;;;5073050;28;20074;-73
2021/07/05 09:35:54;;;;;;;5.35;2.22;;;22.30;99.90;;;;;;5072914;28;20096;-74
2021/07/05 09:38:38;;;;;;;5.63;1.92;;;22.30;99.90;;;;;;5073242;28;20032;-73
2021/07/05 09:41:42;;;;;;;4.15;2.45;;;22.30;99.90;;;;;;5072773;28;20373;-76
2021/07/05 09:44:17;;;;;;;7.05;2.30;;;22.30;99.90;;;;;;5030492;28;20108;-76
2021/07/05 09:46:51;;;;;;;4.45;2.42;;;22.30;99.90;;;;;;5030648;28;20136;-76
2021/07/05 09:49:16;;;;;;;;;;;22.30;99.90;;;;;;5056257;28;20437;-76
2021/07/05 09:51:46;;;;;;;5.03;2.17;;;22.40;99.90;;;;;;5070801;28;20023;-75
2021/07/05 09:54:17;;;;;;;3.60;2.10;;;22.40;99.90;;;;;;5072913;28;20035;-73
2021/07/05 09:56:43;;;;;;;5.35;2.10;;;22.40;99.90;;;;;;5071702;28;20036;-75
2021/07/05 09:59:18;;;;;;;4.85;1.95;;;22.50;99.90;;;;;;5072956;28;20032;-75
2021/07/05 10:01:55;;;;;;;6.10;2.15;;;22.50;99.90;;;;;;5072489;28;20107;-74
2021/07/05 10:04:26;;;;;;;5.20;1.90;;;22.50;99.90;;;;;;5072180;28;20087;-75
2021/07/05 10:06:53;;;;;;;4.85;1.98;;;22.60;99.90;;;;;;5061231;28;20054;-74
2021/07/05 10:09:29;;;;;;;3.08;1.90;;;22.60;99.90;;;;;;5072317;28;20033;-75
2021/07/05 10:11:55;;;;;;;4.72;2.28;;;22.60;99.90;;;;;;5071122;28;20032;-74
2021/07/05 10:14:22;;;;;;;4.68;2.20;;;22.60;99.90;;;;;;5072012;28;20036;-77
2021/07/05 10:16:49;;;;;;;4.95;2.03;;;22.60;99.90;;;;;;5071836;28;20024;-77
2021/07/05 10:19:16;;;;;;;5.15;2.20;;;22.60;99.90;;;;;;5072601;28;20031;-74
2021/07/05 10:21:43;;;;;;;5.45;2.20;;;22.60;99.90;;;;;;5073544;28;20103;-73
2021/07/05 10:24:09;;;;;;;2.80;1.83;;;22.60;99.90;;;;;;5072431;28;20033;-74
2021/07/05 10:26:36;;;;;;;4.65;2.15;;;22.50;99.90;;;;;;5071977;28;20066;-75
2021/07/05 10:29:04;;;;;;;4.50;2.20;;;22.60;99.90;;;;;;5070601;28;20028;-75
2021/07/05 10:31:31;;;;;;;3.90;2.17;;;22.50;99.90;;;;;;5071415;28;20044;-75
2021/07/05 10:34:02;;;;;;;5.90;2.00;;;22.60;99.90;;;;;;5071954;28;20487;-74
2021/07/05 10:36:33;;;;;;;4.53;2.15;;;22.50;99.90;;;;;;5069859;28;20408;-76
2021/07/05 10:39:01;;;;;;;3.78;2.25;;;22.60;99.90;;;;;;5071923;28;20029;-75
2021/07/05 10:41:40;;;;;;;3.35;2.10;;;22.60;99.90;;;;;;5072176;28;20028;-75
2021/07/05 10:44:09;;;;;;;6.75;2.10;;;22.60;99.90;;;;;;5071279;28;20043;-74
2021/07/05 10:46:50;;;;;;;2.28;2.00;;;22.70;99.90;;;;;;5071352;28;20115;-75
2021/07/05 10:49:28;;;;;;;3.90;2.40;;;22.60;99.90;;;;;;5072060;28;20430;-75
2021/07/05 10:52:07;;;;;;;4.28;2.45;;;22.60;99.90;;;;;;5071039;28;20025;-76
2021/07/05 10:54:41;;;;;;;4.85;2.25;;;22.60;99.90;;;;;;5071191;28;20434;-74
2021/07/05 10:57:07;;;;;;;4.97;2.20;;;22.60;99.90;;;;;;5070286;28;20357;-76
2021/07/05 10:59:35;;;;;;;3.25;2.05;;;22.70;99.90;;;;;;5071507;28;20035;-76
2021/07/05 11:02:21;;;;;;;2.80;1.98;;;22.70;99.90;;;;;;5070650;28;20017;-75
2021/07/05 11:04:50;;;;;;;4.22;2.17;;;22.70;99.90;;;;;;5067941;28;20024;-76
2021/07/05 11:07:16;;;;;;;3.55;2.15;;;22.70;99.90;;;;;;5070182;28;20052;-75
2021/07/05 11:09:56;;;;;;;3.53;2.33;;;22.70;99.90;;;;;;5071425;28;20024;-76
2021/07/05 11:12:32;;;;;;;4.13;2.20;;;22.70;99.90;;;;;;5070449;28;20044;-74
2021/07/05 11:14:58;;;;;;;3.85;2.20;;;22.80;99.90;;;;;;5071419;28;20024;-75
2021/07/05 11:17:26;;;;;;;4.53;2.40;;;22.80;99.90;;;;;;5071410;28;20032;-76
2021/07/05 11:19:54;;;;;;;6.65;2.10;;;22.80;99.90;;;;;;5070841;28;20029;-75
2021/07/05 11:22:27;;;;;;;3.88;2.03;;;22.80;99.90;;;;;;5069936;28;20046;-73
2021/07/05 11:24:58;;;;;;;6.78;2.45;;;22.80;99.90;;;;;;5067652;28;20768;-75
2021/07/05 11:27:29;;;;;;;6.30;2.95;;;22.80;99.90;;;;;;5068667;28;20485;-75
2021/07/05 11:30:10;;;;;;;5.35;2.53;;;22.70;99.90;;;;;;5067498;28;20108;-70
2021/07/05 11:32:38;;;;;;;7.10;2.60;;;22.70;99.90;;;;;;5068131;28;20048;-76
2021/07/05 11:35:50;;;;;;;6.05;3.03;;;22.70;99.90;;;;;;5067058;28;20421;-74
2021/07/05 11:38:27;;;;;;;5.00;2.38;;;22.60;99.90;;;;;;5067155;28;20037;-75
2021/07/05 11:40:52;;;;;;;6.47;2.67;;;22.60;99.90;;;;;;5069552;28;20086;-73
2021/07/05 11:43:39;;;;;;;4.47;2.30;;;22.60;99.90;;;;;;5068561;28;21035;-75
2021/07/05 11:46:05;;;;;;;6.43;2.63;;;22.70;99.90;;;;;;5068878;28;20103;-71
2021/07/05 11:48:39;;;;;;;5.47;2.30;;;22.60;99.90;;;;;;5070186;28;20112;-72
2021/07/05 11:51:20;;;;;;;6.03;2.38;;;22.60;99.90;;;;;;5068984;28;20017;-74
2021/07/05 11:53:52;;;;;;;5.10;1.98;;;22.60;99.90;;;;;;5068758;28;20040;-74
2021/07/05 11:56:41;;;;;;;5.38;2.15;;;22.60;99.90;;;;;;5066757;28;20349;-75
2021/07/05 11:59:18;;;;;;;6.72;2.20;;;22.60;99.90;;;;;;5069966;28;20043;-77
2021/07/05 12:01:44;;;;;;;7.72;2.10;;;22.60;99.90;;;;;;5070714;28;20023;-77
2021/07/05 12:04:11;;;;;;;6.40;2.17;;;22.60;99.90;;;;;;5071242;28;20028;-76
2021/07/05 12:06:37;;;;;;;6.38;2.08;;;22.60;99.90;;;;;;5070658;28;20017;-76
2021/07/05 12:09:08;;;;;;;8.77;2.28;;;22.60;99.90;;;;;;5070738;28;20527;-75
2021/07/05 12:11:42;;;;;;;5.25;2.47;;;22.60;99.90;;;;;;5070687;28;20112;-75
2021/07/05 12:14:21;;;;;;;7.22;2.60;;;22.70;99.90;;;;;;5071070;28;20029;-74
2021/07/05 12:16:55;;;;;;;8.52;2.67;;;22.70;99.90;;;;;;5070764;28;20122;-76
2021/07/05 12:19:22;;;;;;;4.75;2.28;;;22.70;99.90;;;;;;5072844;28;20035;-75
2021/07/05 12:21:51;;;;;;;7.10;2.28;;;22.70;99.90;;;;;;5073933;28;20052;-75
2021/07/05 12:24:20;;;;;;;6.82;2.20;;;22.70;99.90;;;;;;5074579;28;20028;-74
2021/07/05 12:26:50;;;;;;;8.48;2.00;;;22.70;99.90;;;;;;5074224;28;20028;-75
2021/07/05 12:29:21;;;;;;;6.57;2.10;;;22.70;99.90;;;;;;5074299;28;20028;-76
2021/07/05 12:32:05;;;;;;;5.57;2.00;;;22.70;99.90;;;;;;5073002;28;20389;-77
2021/07/05 12:34:54;;;;;;;5.03;1.83;;;22.70;99.90;;;;;;5070663;28;20032;-76
2021/07/05 12:37:37;;;;;;;4.72;2.00;;;22.80;99.90;;;;;;5074262;28;20028;-75
2021/07/05 12:40:10;;;;;;;4.80;1.70;;;22.80;99.90;;;;;;5074413;28;20089;-77
2021/07/05 12:42:49;;;;;;;8.77;2.00;;;22.70;99.90;;;;;;5075026;28;20029;-74
2021/07/05 12:45:17;;;;;;;5.65;1.90;;;22.80;99.90;;;;;;5074208;28;20021;-74
2021/07/05 12:48:10;;;;;;;5.35;1.60;;;22.80;99.90;;;;;;5073923;28;20031;-75
2021/07/05 12:50:42;;;;;;;4.60;1.98;;;22.90;99.90;;;;;;5072669;28;20044;-75
2021/07/05 12:53:07;;;;;;;3.72;1.55;;;22.90;99.90;;;;;;5073730;28;20046;-74
2021/07/05 12:55:36;;;;;;;5.88;1.80;;;23.00;99.90;;;;;;5073781;28;20025;-74
2021/07/05 12:58:02;;;;;;;5.57;1.65;;;23.00;99.90;;;;;;5073900;28;20054;-73
2021/07/05 13:00:30;;;;;;;4.10;1.95;;;23.10;99.90;;;;;;5074229;28;20096;-73
2021/07/05 13:03:13;;;;;;;3.80;1.98;;;23.10;99.90;;;;;;5073697;28;20490;-73
2021/07/05 13:05:41;;;;;;;5.07;1.90;;;23.10;99.90;;;;;;5073547;28;20546;-74
2021/07/05 13:08:07;;;;;;;2.85;1.50;;;23.20;99.90;;;;;;5073727;28;20103;-73
2021/07/05 13:10:40;;;;;;;3.22;1.60;;;23.20;99.90;;;;;;5073373;28;20029;-73
2021/07/05 13:13:11;;;;;;;2.35;1.50;;;23.20;99.90;;;;;;5073646;28;20387;-73
2021/07/05 13:15:48;;;;;;;2.97;1.60;;;23.30;99.90;;;;;;5073503;28;20021;-72
2021/07/05 13:18:22;;;;;;;5.20;1.70;;;23.30;99.90;;;;;;5056023;28;20037;-73
2021/07/05 13:20:52;;;;;;;4.13;1.60;;;23.30;99.90;;;;;;5072828;28;20035;-74
2021/07/05 13:23:18;;;;;;;3.35;1.58;;;23.40;99.90;;;;;;5073510;28;20031;-73
2021/07/05 13:25:49;;;;;;;3.88;1.40;;;23.40;99.90;;;;;;5073290;28;20050;-73
2021/07/05 13:28:16;;;;;;;3.25;1.67;;;23.40;99.90;;;;;;5073206;28;20103;-73
2021/07/05 13:30:43;;;;;;;3.90;1.75;;;23.40;99.90;;;;;;5070897;28;20384;-74
2021/07/05 13:33:10;;;;;;;4.75;1.60;;;23.50;99.90;;;;;;5072600;28;20396;-73
2021/07/05 13:35:42;;;;;;;3.78;1.70;;;23.50;99.90;;;;;;5073067;28;20108;-75
2021/07/05 13:38:22;;;;;;;3.97;1.70;;;23.50;99.90;;;;;;5073302;28;20020;-74
2021/07/05 13:40:53;;;;;;;3.17;1.40;;;23.50;99.90;;;;;;5072455;28;20477;-74
2021/07/05 13:43:27;;;;;;;2.50;1.45;;;23.60;99.90;;;;;;5072676;28;20447;-74
2021/07/05 13:45:59;;;;;;;2.58;1.65;;;23.60;99.90;;;;;;5068882;28;20055;-73
2021/07/05 13:48:36;;;;;;;3.30;1.60;;;23.60;99.90;;;;;;5069832;28;20055;-74
2021/07/05 13:51:10;;;;;;;2.67;1.70;;;23.70;99.90;;;;;;5072288;28;20040;-74
2021/07/05 13:53:39;;;;;;;3.67;1.60;;;23.60;99.90;;;;;;5072156;28;20037;-73
2021/07/05 13:56:12;;;;;;;1.88;1.38;;;23.70;99.90;;;;;;5070977;28;20019;-74
2021/07/05 13:59:03;;;;;;;3.53;1.58;;;23.70;99.90;;;;;;5072124;28;20094;-74
2021/07/05 14:01:29;;;;;;;3.00;1.77;;;23.70;99.90;;;;;;5061650;28;20035;-75
2021/07/05 14:03:59;;;;;;;2.45;1.40;;;23.70;99.90;;;;;;5072815;28;20185;-74
2021/07/05 14:06:25;;;;;;;3.63;1.70;;;23.70;99.90;;;;;;5072752;28;20028;-73
2021/07/05 14:08:52;;;;;;;2.28;1.45;;;23.80;99.90;;;;;;5072199;28;20507;-75
2021/07/05 14:11:20;;;;;;;5.72;1.80;;;23.80;99.90;;;;;;5072276;28;20542;-74
2021/07/05 14:13:49;;;;;;;3.53;1.45;;;23.80;99.90;;;;;;5072220;28;20078;-73
2021/07/05 14:16:16;;;;;;;2.53;1.50;;;23.80;99.90;;;;;;5071981;28;20050;-73
2021/07/05 14:18:44;;;;;;;2.10;1.30;;;23.90;99.90;;;;;;5072174;28;20036;-74
2021/07/05 14:21:12;;;;;;;3.75;1.50;;;23.80;99.90;;;;;;5072338;28;20503;-74
2021/07/05 14:23:38;;;;;;;2.70;1.50;;;23.90;99.90;;;;;;5071813;28;20032;-74
2021/07/05 14:26:05;;;;;;;2.72;1.38;;;23.90;99.90;;;;;;5072097;28;20031;-74
2021/07/05 14:28:32;;;;;;;3.63;1.52;;;23.90;99.90;;;;;;5072084;28;20024;-74
2021/07/05 14:30:58;;;;;;;3.72;1.30;;;23.90;99.90;;;;;;5072061;28;20024;-73
2021/07/05 14:33:25;;;;;;;2.67;1.50;;;23.90;99.90;;;;;;5071547;28;20471;-74
2021/07/05 14:35:52;;;;;;;2.80;1.50;;;23.90;99.90;;;;;;5071765;28;20376;-74
2021/07/05 14:38:18;;;;;;;2.53;1.40;;;23.90;99.90;;;;;;5071940;28;20020;-74
2021/07/05 14:40:45;;;;;;;2.85;1.50;;;23.90;99.90;;;;;;5071499;28;20032;-73
2021/07/05 14:43:12;;;;;;;3.08;1.50;;;23.90;99.90;;;;;;5070900;28;20028;-73
2021/07/05 14:45:38;;;;;;;2.25;1.67;;;23.90;99.90;;;;;;5071596;28;20017;-73
2021/07/05 14:48:04;;;;;;;3.40;1.40;;;23.90;99.90;;;;;;5071125;28;20035;-73
2021/07/05 14:50:31;;;;;;;2.53;1.33;;;23.90;99.90;;;;;;5071013;28;20037;-74
2021/07/05 14:52:59;;;;;;;2.22;1.50;;;24.00;99.90;;;;;;5071618;28;20124;-76
2021/07/05 14:55:25;;;;;;;2.75;1.75;;;23.90;99.90;;;;;;5070643;28;20032;-74
2021/07/05 14:57:52;;;;;;;3.00;1.40;;;23.90;99.90;;;;;;5064384;28;20531;-76
2021/07/05 15:00:22;;;;;;;3.42;1.55;;;24.00;99.90;;;;;;5064710;28;20021;-77
2021/07/05 15:02:49;;;;;;;3.25;1.45;;;24.00;99.90;;;;;;5071171;28;20086;-77
2021/07/05 15:05:16;;;;;;;3.15;1.50;;;24.00;99.90;;;;;;5071653;28;20028;-76
2021/07/05 15:07:42;;;;;;;1.60;1.23;;;24.10;99.90;;;;;;5071370;28;20020;-77
2021/07/05 15:10:10;;;;;;;2.20;1.40;;;24.00;99.90;;;;;;5070919;28;20122;-76
2021/07/05 15:12:36;;;;;;;3.00;1.55;;;24.00;99.90;;;;;;5071443;28;20037;-75
2021/07/05 15:15:04;;;;;;;3.67;1.50;;;24.10;99.90;;;;;;5071677;28;20143;-74
2021/07/05 15:17:30;;;;;;;3.83;1.40;;;24.10;99.90;;;;;;5070956;28;20029;-73
2021/07/05 15:19:56;;;;;;;2.45;1.80;;;24.10;99.90;;;;;;5071766;28;20071;-77
2021/07/05 15:22:21;;;;;;;3.80;1.40;;;24.10;99.90;;;;;;5071486;28;20437;-79
2021/07/05 15:24:47;;;;;;;2.15;1.30;;;24.10;99.90;;;;;;5071200;28;20024;-77
2021/07/05 15:27:13;;;;;;;2.42;1.63;;;24.10;99.90;;;;;;5071078;28;20115;-78
2021/07/05 15:29:38;;;;;;;2.10;1.35;;;24.10;99.90;;;;;;5065544;28;20020;-77
2021/07/05 15:32:05;;;;;;;3.75;1.50;;;24.10;99.90;;;;;;5071013;28;20127;-75
2021/07/05 15:34:31;;;;;;;2.70;1.58;;;24.20;99.90;;;;;;5070902;28;20537;-75
2021/07/05 15:36:57;;;;;;;2.25;1.55;;;24.20;99.90;;;;;;5084211;28;20036;-78
2021/07/05 15:39:27;;;;;;;4.43;1.58;;;24.20;99.90;;;;;;5091498;28;20031;-78
2021/07/05 15:41:53;;;;;;;3.05;1.42;;;24.20;99.90;;;;;;5091451;28;20032;-78
2021/07/05 15:44:19;;;;;;;2.58;1.60;;;24.20;99.90;;;;;;5091313;28;20180;-74
2021/07/05 15:46:45;;;;;;;1.75;1.23;;;24.20;99.90;;;;;;5091231;28;20051;-77
2021/07/05 15:49:10;;;;;;;2.78;1.40;;;24.20;99.90;;;;;;5066073;28;20040;-76
2021/07/05 15:51:36;;;;;;;2.45;1.60;;;24.20;99.90;;;;;;5050785;28;20021;-74
2021/07/05 15:54:02;;;;;;;1.95;1.30;;;24.20;99.90;;;;;;5052459;28;20036;-78
2021/07/05 15:56:27;;;;;;;3.90;1.40;;;24.20;99.90;;;;;;5055530;28;20060;-77
2021/07/05 15:58:53;;;;;;;2.35;1.55;;;24.20;99.90;;;;;;5067909;28;20032;-77
2021/07/05 16:01:19;;;;;;;2.35;1.30;;;24.20;99.90;;;;;;5073106;28;20028;-76
2021/07/05 16:03:44;;;;;;;2.15;1.63;;;24.20;99.90;;;;;;5073176;28;20037;-77
2021/07/05 16:06:10;;;;;;;2.13;1.40;;;24.20;99.90;;;;;;5074366;28;20032;-76
2021/07/05 16:08:35;;;;;;;1.83;1.25;;;24.20;99.90;;;;;;5074132;28;20028;-77
2021/07/05 16:11:03;;;;;;;1.55;1.30;;;24.20;99.90;;;;;;5074415;28;20029;-76
2021/07/05 16:13:29;;;;;;;2.15;1.48;;;24.10;99.90;;;;;;5072713;28;20036;-75
2021/07/05 16:15:54;;;;;;;2.58;1.60;;;24.10;99.90;;;;;;5074114;28;20028;-77
2021/07/05 16:18:21;;;;;;;1.58;1.40;;;24.20;99.90;;;;;;5068395;28;20029;-77
2021/07/05 16:20:49;;;;;;;2.65;1.50;;;24.20;99.90;;;;;;5072769;28;20020;-76
2021/07/05 16:23:15;;;;;;;1.77;1.27;;;24.20;99.90;;;;;;5073268;28;20043;-77
2021/07/05 16:25:41;;;;;;;1.33;1.23;;;24.10;99.90;;;;;;5072581;28;20479;-73
2021/07/05 16:28:08;;;;;;;2.60;1.30;;;24.20;99.90;;;;;;5074295;28;20074;-73
2021/07/05 16:30:35;;;;;;;2.60;1.45;;;24.20;99.90;;;;;;5073978;28;20020;-75
2021/07/05 16:33:01;;;;;;;2.45;1.20;;;24.10;99.90;;;;;;5073158;28;20028;-76
2021/07/05 16:35:27;;;;;;;2.30;1.40;;;24.10;99.90;;;;;;5074671;28;20081;-73
2021/07/05 16:37:53;;;;;;;1.70;1.30;;;24.10;99.90;;;;;;5073129;28;20096;-73
2021/07/05 16:40:19;;;;;;;1.88;1.25;;;24.10;99.90;;;;;;5073017;28;20032;-72
2021/07/05 16:42:44;;;;;;;2.67;1.40;;;24.10;99.90;;;;;;5070294;28;20028;-73
2021/07/05 16:45:10;;;;;;;1.70;1.30;;;24.10;99.90;;;;;;5073464;28;20396;-72
2021/07/05 16:47:41;;;;;;;2.45;1.13;;;24.10;99.90;;;;;;5074737;28;20035;-73
2021/07/05 16:50:12;;;;;;;1.80;1.30;;;24.10;99.90;;;;;;5061924;28;20033;-74
2021/07/05 16:52:41;;;;;;;2.03;1.30;;;24.10;99.90;;;;;;5053785;28;20416;-74
2021/07/05 16:55:07;;;;;;;1.73;1.27;;;24.10;99.90;;;;;;5067845;28;20039;-73
2021/07/05 16:57:33;;;;;;;2.40;1.40;;;24.10;99.90;;;;;;5059176;28;20500;-73
2021/07/05 17:00:07;;;;;;;1.80;1.02;;;24.10;99.90;;;;;;5065515;28;20036;-73
2021/07/05 17:02:35;;;;;;;2.63;1.50;;;24.10;99.90;;;;;;5073381;28;20086;-73
2021/07/05 17:05:01;;;;;;;2.53;1.50;;;24.10;99.90;;;;;;5072258;28;20468;-74
2021/07/05 17:07:26;;;;;;;1.30;1.20;;;24.10;99.90;;;;;;5074095;28;20104;-73
2021/07/05 17:09:52;;;;;;;2.10;1.30;;;24.10;99.90;;;;;;5073631;28;20154;-74
2021/07/05 17:12:18;;;;;;;2.72;1.20;;;24.10;99.90;;;;;;5064287;28;20495;-73
2021/07/05 17:14:45;;;;;;;1.30;1.20;;;24.10;99.90;;;;;;5054800;28;20044;-77
2021/07/05 17:17:11;;;;;;;1.30;1.00;;;24.10;99.90;;;;;;5053348;28;20029;-78
2021/07/05 17:19:37;;;;;;;1.80;1.23;;;24.00;99.90;;;;;;5053257;28;20017;-77
2021/07/05 17:22:03;;;;;;;1.75;1.40;;;24.10;99.90;;;;;;5064776;28;20035;-77
2021/07/05 17:24:29;;;;;;;2.00;1.15;;;24.10;99.90;;;;;;5072716;28;20031;-75
2021/07/05 17:26:54;;;;;;;1.90;1.08;;;24.00;99.90;;;;;;5073362;28;20025;-76
2021/07/05 17:29:20;;;;;;;1.90;1.20;;;24.00;99.90;;;;;;5067111;28;20059;-77
2021/07/05 17:31:46;;;;;;;1.88;1.17;;;24.10;99.90;;;;;;5072195;28;20072;-77
2021/07/05 17:34:14;;;;;;;2.00;1.42;;;24.00;99.90;;;;;;5073226;28;20060;-77
2021/07/05 17:36:40;;;;;;;2.50;1.20;;;24.00;99.90;;;;;;5071010;28;20020;-74
2021/07/05 17:39:07;;;;;;;3.08;1.20;;;24.00;99.90;;;;;;5072598;28;20405;-76
2021/07/05 17:41:33;;;;;;;1.30;1.02;;;24.00;99.90;;;;;;5085496;28;20031;-76
2021/07/05 17:43:59;;;;;;;1.10;1.00;;;24.00;99.90;;;;;;5073686;28;20071;-76
2021/07/05 17:46:25;;;;;;;2.00;1.10;;;24.00;99.90;;;;;;5075946;28;20024;-75
2021/07/05 17:48:51;;;;;;;2.35;1.40;;;24.00;99.90;;;;;;5072688;28;20098;-74
2021/07/05 17:51:16;;;;;;;1.20;1.10;;;24.00;99.90;;;;;;5072863;28;20500;-73
2021/07/05 17:53:42;;;;;;;1.67;1.30;;;24.00;99.90;;;;;;5072599;28;20538;-72
2021/07/05 17:56:08;;;;;;;2.58;1.20;;;24.00;99.90;;;;;;5072824;28;20021;-72
2021/07/05 17:58:34;;;;;;;1.20;1.10;;;24.00;99.90;;;;;;5070861;28;20033;-74
2021/07/05 18:01:01;;;;;;;2.20;1.40;;;24.00;99.90;;;;;;5072456;28;20024;-70
2021/07/05 18:03:26;;;;;;;1.63;1.13;;;24.00;99.90;;;;;;5068335;28;20035;-72
2021/07/05 18:05:52;;;;;;;1.65;1.30;;;24.00;99.90;;;;;;5052649;28;20017;-70
2021/07/05 18:08:19;;;;;;;2.08;1.15;;;24.00;99.90;;;;;;5070617;28;20370;-69
2021/07/05 18:10:46;;;;;;;1.92;1.27;;;24.00;99.90;;;;;;5072358;28;20020;-70
2021/07/05 18:13:12;;;;;;;2.25;1.20;;;23.90;99.90;;;;;;5072658;28;20032;-71
2021/07/05 18:15:38;;;;;;;2.63;1.17;;;24.00;99.90;;;;;;5071770;28;20025;-70
2021/07/05 18:18:05;;;;;;;1.95;1.42;;;24.00;99.90;;;;;;5069972;28;20020;-69
2021/07/05 18:20:34;;;;;;;2.67;1.40;;;24.00;99.90;;;;;;5072099;28;20024;-69
2021/07/05 18:23:01;;;;;;;4.05;1.42;;;23.90;99.90;;;;;;5067071;28;20033;-70
2021/07/05 18:25:27;;;;;;;4.55;1.30;;;24.00;99.90;;;;;;5069612;28;20358;-70
2021/07/05 18:27:57;;;;;;;5.45;1.20;;;24.00;99.90;;;;;;5070111;28;20024;-73
2021/07/05 18:30:23;;;;;;;1.42;1.02;;;24.00;99.90;;;;;;5072115;28;20024;-73
2021/07/05 18:32:50;;;;;;;1.45;1.20;;;24.00;99.90;;;;;;5065714;28;20586;-71
2021/07/05 18:35:17;;;;;;;3.45;1.13;;;24.00;99.90;;;;;;5071741;28;20040;-75
2021/07/05 18:37:44;;;;;;;3.25;1.15;;;24.00;99.90;;;;;;5071431;28;20070;-72
2021/07/05 18:40:20;;;;;;;3.05;1.48;;;23.90;99.90;;;;;;5070460;28;20099;-70
2021/07/05 18:42:46;;;;;;;1.48;1.17;;;23.90;99.90;;;;;;5070246;28;20159;-72
2021/07/05 18:45:12;;;;;;;1.85;1.25;;;23.90;99.90;;;;;;5071596;28;20381;-72
2021/07/05 18:47:38;;;;;;;1.58;1.05;;;23.90;99.90;;;;;;5071765;28;20016;-72
2021/07/05 18:50:11;;;;;;;1.45;1.10;;;23.90;99.90;;;;;;5071429;28;20024;-73
2021/07/05 18:52:37;;;;;;;1.58;1.10;;;23.90;99.90;;;;;;5071652;28;20028;-73
2021/07/05 18:55:04;;;;;;;2.03;1.00;;;23.90;99.90;;;;;;5069903;28;20025;-73
2021/07/05 18:57:30;;;;;;;2.58;1.23;;;23.90;99.90;;;;;;5071723;28;20031;-73
2021/07/05 18:59:56;;;;;;;1.42;0.98;;;23.90;99.90;;;;;;5072097;28;20025;-73
2021/07/05 19:02:21;;;;;;;2.70;1.00;;;23.90;99.90;;;;;;5071761;28;20457;-74
2021/07/05 19:04:47;;;;;;;1.20;0.90;;;23.90;99.90;;;;;;5070759;28;20031;-73
2021/07/05 19:07:15;;;;;;;1.63;1.13;;;23.90;99.90;;;;;;5070410;28;20017;-71
2021/07/05 19:09:41;;;;;;;2.67;1.10;;;23.90;99.90;;;;;;5070707;28;20032;-73
2021/07/05 19:12:07;;;;;;;1.45;0.98;;;23.90;99.90;;;;;;5077640;28;20032;-73
2021/07/05 19:14:33;;;;;;;3.40;1.30;;;23.90;99.90;;;;;;5078425;28;20037;-72
2021/07/05 19:16:59;;;;;;;1.35;0.85;;;23.90;99.90;;;;;;5092094;28;20016;-73
2021/07/05 19:19:25;;;;;;;1.42;0.95;;;23.90;99.90;;;;;;5090835;28;20035;-73
2021/07/05 19:21:50;;;;;;;2.28;1.20;;;23.90;99.90;;;;;;5091511;28;20411;-71
2021/07/05 19:24:17;;;;;;;1.50;1.05;;;23.80;99.90;;;;;;5090543;28;20024;-72
2021/07/05 19:26:43;;;;;;;3.65;1.20;;;23.80;99.90;;;;;;5080282;28;20079;-71
2021/07/05 19:29:09;;;;;;;1.25;0.93;;;23.80;99.90;;;;;;5071331;28;20028;-72
2021/07/05 19:31:37;;;;;;;1.73;1.20;;;23.80;99.90;;;;;;5071101;28;20064;-74
2021/07/05 19:34:02;;;;;;;1.73;1.00;;;23.80;99.90;;;;;;5071090;28;20555;-71
2021/07/05 19:36:28;;;;;;;2.33;0.93;;;23.80;99.90;;;;;;5071935;28;20123;-71
2021/07/05 19:38:54;;;;;;;2.42;1.20;;;23.80;99.90;;;;;;5070790;28;20025;-73
2021/07/05 19:41:19;;;;;;;1.45;0.90;;;23.80;99.90;;;;;;5071242;28;20039;-76
2021/07/05 19:43:45;;;;;;;1.58;1.00;;;23.80;99.90;;;;;;5071094;28;20101;-73
2021/07/05 19:46:11;;;;;;;1.63;1.00;;;23.80;99.90;;;;;;5071408;28;20035;-74
2021/07/05 19:48:36;;;;;;;2.38;1.05;;;23.80;99.90;;;;;;5070676;28;20475;-70
2021/07/05 19:51:02;;;;;;;2.75;0.90;;;23.80;99.90;;;;;;5071409;28;20115;-71
2021/07/05 19:53:28;;;;;;;1.20;0.90;;;23.80;99.90;;;;;;5070620;28;20110;-73
2021/07/05 19:55:57;;;;;;;1.67;1.00;;;23.80;99.90;;;;;;5070807;28;20155;-69
2021/07/05 19:58:24;;;;;;;1.23;0.90;;;23.80;99.90;;;;;;5068602;28;20024;-73
2021/07/05 20:00:52;;;;;;;1.35;0.80;;;23.80;99.90;;;;;;5067402;28;20575;-72
2021/07/05 20:03:19;;;;;;;3.67;1.20;;;23.80;99.90;;;;;;5082361;28;20063;-72
2021/07/05 20:05:45;;;;;;;0.75;0.75;;;23.70;99.90;;;;;;5069231;28;20025;-74
2021/07/05 20:08:11;;;;;;;1.27;0.90;;;23.70;99.90;;;;;;5069645;28;20029;-73
2021/07/05 20:10:37;;;;;;;1.75;0.80;;;23.70;99.90;;;;;;5069291;28;20099;-72
2021/07/05 20:13:03;;;;;;;1.35;1.00;;;23.70;99.90;;;;;;5069426;28;20472;-72
2021/07/05 20:15:30;;;;;;;1.65;1.10;;;23.70;99.90;;;;;;5069838;28;20020;-75
2021/07/05 20:17:56;;;;;;;0.80;0.80;;;23.70;99.90;;;;;;5070002;28;20384;-73
2021/07/05 20:20:21;;;;;;;1.10;0.98;;;23.70;99.90;;;;;;5068186;28;20078;-72
2021/07/05 20:22:47;;;;;;;1.73;1.05;;;23.70;99.90;;;;;;5069300;28;20024;-74
2021/07/05 20:25:13;;;;;;;1.95;0.98;;;23.70;99.90;;;;;;5069203;28;20111;-72
2021/07/05 20:27:39;;;;;;;1.00;0.90;;;23.60;99.90;;;;;;5064556;28;20461;-74
2021/07/05 20:30:06;;;;;;;0.98;0.88;;;23.60;99.90;;;;;;5068103;28;20036;-74